createdAt,value
2022-08-30T00:01:17.668Z,10.15
2022-08-30T00:03:49.241Z,9.85
2022-08-30T00:06:21.036Z,10.55
2022-08-30T00:08:51.700Z,13.50
2022-08-30T00:11:24.773Z,7.72
2022-08-30T00:13:56.215Z,8.45
2022-08-30T00:16:26.913Z,9.82
2022-08-30T00:18:57.610Z,6.72
2022-08-30T00:21:28.816Z,5.63
2022-08-30T00:23:58.546Z,7.25
2022-08-30T00:26:28.105Z,7.38
2022-08-30T00:28:57.688Z,6.75
2022-08-30T00:31:27.583Z,9.57
2022-08-30T00:33:57.646Z,11.32
2022-08-30T00:36:27.259Z,6.93
2022-08-30T00:38:57.006Z,5.85
2022-08-30T00:41:26.570Z,4.40
2022-08-30T00:43:56.175Z,4.45
2022-08-30T00:46:26.198Z,10.77
2022-08-30T00:48:57.434Z,5.55
2022-08-30T00:51:27.856Z,7.93
2022-08-30T00:53:59.886Z,5.95
2022-08-30T00:56:31.043Z,7.80
2022-08-30T00:59:03.505Z,5.50
2022-08-30T01:01:34.440Z,6.25
2022-08-30T01:04:05.379Z,3.53
2022-08-30T01:06:35.818Z,3.63
2022-08-30T01:09:07.065Z,5.68
2022-08-30T01:11:39.500Z,6.88
2022-08-30T01:14:10.634Z,5.13
2022-08-30T01:16:41.818Z,4.60
2022-08-30T01:19:39.186Z,3.05
2022-08-30T01:22:34.405Z,3.63
2022-08-30T01:25:08.045Z,5.72
2022-08-30T01:27:41.791Z,5.70
2022-08-30T01:30:12.667Z,9.25
2022-08-30T01:32:47.018Z,6.78
2022-08-30T01:35:19.411Z,7.63
2022-08-30T01:37:50.029Z,6.47
2022-08-30T01:40:22.199Z,4.85
2022-08-30T01:42:52.069Z,4.57
2022-08-30T01:45:21.718Z,4.82
2022-08-30T01:47:52.229Z,3.47
2022-08-30T01:50:21.771Z,6.05
2022-08-30T01:52:51.275Z,5.25
2022-08-30T01:55:21.260Z,3.25
2022-08-30T01:57:51.498Z,4.97
2022-08-30T02:00:21.355Z,8.27
2022-08-30T02:02:51.014Z,4.80
2022-08-30T02:05:21.447Z,5.65
2022-08-30T02:07:51.008Z,3.92
2022-08-30T02:10:20.609Z,3.50
2022-08-30T02:12:50.156Z,5.40
2022-08-30T02:15:19.967Z,4.38
2022-08-30T02:17:49.589Z,3.90
2022-08-30T02:20:19.600Z,4.25
2022-08-30T02:22:49.673Z,5.20
2022-08-30T02:25:21.293Z,6.00
2022-08-30T02:27:51.379Z,4.70
2022-08-30T02:30:21.598Z,7.25
2022-08-30T02:32:51.126Z,6.10
2022-08-30T02:35:20.750Z,3.55
2022-08-30T02:37:50.373Z,2.60
2022-08-30T02:40:20.153Z,6.65
2022-08-30T02:42:50.579Z,3.15
2022-08-30T02:45:20.268Z,7.20
2022-08-30T02:47:50.010Z,7.97
2022-08-30T02:50:19.724Z,7.63
2022-08-30T02:52:49.381Z,3.33
2022-08-30T02:55:19.199Z,3.25
2022-08-30T02:57:49.368Z,5.00
2022-08-30T03:00:22.092Z,5.95
2022-08-30T03:02:51.730Z,8.18
2022-08-30T03:05:21.715Z,6.45
2022-08-30T03:07:51.300Z,6.47
2022-08-30T03:10:21.070Z,5.40
2022-08-30T03:12:51.102Z,3.53
2022-08-30T03:15:20.651Z,2.88
2022-08-30T03:17:50.249Z,2.75
2022-08-30T03:20:20.281Z,3.15
2022-08-30T03:22:50.064Z,3.92
2022-08-30T03:25:20.081Z,4.07
2022-08-30T03:27:51.051Z,5.25
2022-08-30T03:30:22.446Z,22.10
2022-08-30T03:32:52.703Z,11.50
2022-08-30T03:35:22.409Z,3.40
2022-08-30T03:37:56.424Z,5.00
2022-08-30T03:40:26.363Z,3.13
2022-08-30T03:42:56.038Z,3.13
2022-08-30T03:45:25.724Z,4.30
2022-08-30T03:47:55.339Z,5.72
2022-08-30T03:50:25.265Z,6.07
2022-08-30T03:52:55.083Z,3.13
2022-08-30T03:55:24.686Z,2.72
2022-08-30T03:57:54.251Z,3.67
2022-08-30T04:00:24.527Z,3.53
2022-08-30T04:02:54.088Z,8.27
2022-08-30T04:05:24.325Z,3.47
2022-08-30T04:07:54.043Z,8.73
2022-08-30T04:10:24.197Z,3.50
2022-08-30T04:12:53.820Z,3.67
2022-08-30T04:15:23.349Z,3.88
2022-08-30T04:17:52.905Z,3.22
2022-08-30T04:20:22.931Z,4.03
2022-08-30T04:22:54.505Z,3.00
2022-08-30T04:25:24.132Z,6.40
2022-08-30T04:27:54.331Z,6.40
2022-08-30T04:30:26.698Z,2.90
2022-08-30T04:32:58.732Z,3.97
2022-08-30T04:35:29.312Z,6.13
2022-08-30T04:37:58.833Z,5.45
2022-08-30T04:40:28.417Z,2.03
2022-08-30T04:42:57.987Z,2.63
2022-08-30T04:45:28.110Z,3.08
2022-08-30T04:47:58.160Z,5.20
2022-08-30T04:50:28.212Z,3.28
2022-08-30T04:52:57.715Z,4.05
2022-08-30T04:55:27.919Z,2.40
2022-08-30T04:57:58.096Z,6.40
2022-08-30T05:00:27.749Z,2.63
2022-08-30T05:02:57.375Z,2.83
2022-08-30T05:05:46.679Z,3.28
2022-08-30T05:08:22.049Z,3.95
2022-08-30T05:10:54.678Z,4.70
2022-08-30T05:13:35.072Z,4.80
2022-08-30T05:16:07.629Z,4.63
2022-08-30T05:18:39.211Z,2.50
2022-08-30T05:21:22.493Z,3.38
2022-08-30T05:23:53.077Z,4.07
2022-08-30T05:26:25.918Z,2.47
2022-08-30T05:28:55.987Z,6.07
2022-08-30T05:31:29.314Z,1.90
2022-08-30T05:33:59.413Z,4.00
2022-08-30T05:36:31.489Z,3.42
2022-08-30T05:39:02.124Z,6.00
2022-08-30T05:41:36.875Z,3.50
2022-08-30T05:44:07.955Z,2.92
2022-08-30T05:46:38.255Z,3.97
2022-08-30T05:49:09.740Z,5.65
2022-08-30T05:51:43.444Z,2.78
2022-08-30T05:54:14.568Z,4.00
2022-08-30T05:56:46.921Z,2.20
2022-08-30T05:59:17.707Z,2.20
2022-08-30T06:01:49.253Z,3.00
2022-08-30T06:04:19.515Z,3.38
2022-08-30T06:06:49.151Z,3.72
2022-08-30T06:09:19.241Z,2.40
2022-08-30T06:11:49.551Z,1.95
2022-08-30T06:14:19.307Z,2.33
2022-08-30T06:16:49.205Z,2.17
2022-08-30T06:19:19.348Z,2.33
2022-08-30T06:21:52.886Z,2.00
2022-08-30T06:24:35.652Z,6.47
2022-08-30T06:27:12.834Z,3.00
2022-08-30T06:29:43.372Z,2.45
2022-08-30T06:32:12.971Z,2.95
2022-08-30T06:34:42.477Z,2.45
2022-08-30T06:37:12.010Z,2.45
2022-08-30T06:40:00.362Z,3.33
2022-08-30T06:42:33.575Z,2.45
2022-08-30T06:45:10.342Z,5.85
2022-08-30T06:47:42.231Z,5.75
2022-08-30T06:50:15.944Z,3.25
2022-08-30T06:52:47.234Z,2.40
2022-08-30T06:55:18.533Z,1.58
2022-08-30T06:57:48.862Z,2.78
2022-08-30T07:00:19.672Z,3.33
2022-08-30T07:02:49.265Z,2.55
2022-08-30T07:05:19.644Z,2.53
2022-08-30T07:07:49.319Z,3.40
2022-08-30T07:10:19.259Z,2.47
2022-08-30T07:12:49.345Z,2.85
2022-08-30T07:15:22.198Z,2.92
2022-08-30T07:18:11.981Z,3.38
2022-08-30T07:20:41.619Z,3.00
2022-08-30T07:23:12.180Z,2.85
2022-08-30T07:25:43.212Z,2.70
2022-08-30T07:28:13.543Z,2.22
2022-08-30T07:30:44.892Z,4.57
2022-08-30T07:33:14.468Z,2.88
2022-08-30T07:35:44.145Z,4.07
2022-08-30T07:38:17.373Z,52.08
2022-08-30T07:40:47.022Z,5.20
2022-08-30T07:43:16.730Z,1.83
2022-08-30T07:45:46.594Z,2.75
2022-08-30T07:48:16.164Z,2.97
2022-08-30T07:50:47.642Z,3.47
2022-08-30T07:53:17.547Z,2.53
2022-08-30T07:55:47.375Z,4.88
2022-08-30T07:58:17.474Z,2.63
2022-08-30T08:00:47.822Z,1.65
2022-08-30T08:03:17.504Z,2.47
2022-08-30T08:05:47.867Z,2.50
2022-08-30T08:08:17.556Z,3.65
2022-08-30T08:10:47.313Z,3.05
2022-08-30T08:13:16.946Z,3.85
2022-08-30T08:15:46.989Z,1.85
2022-08-30T08:18:16.844Z,2.00
2022-08-30T08:20:46.493Z,6.20
2022-08-30T08:23:16.155Z,3.88
2022-08-30T08:25:45.832Z,1.60
2022-08-30T08:28:15.757Z,3.55
2022-08-30T08:30:48.299Z,4.13
2022-08-30T08:33:19.144Z,2.38
2022-08-30T08:35:49.438Z,1.67
2022-08-30T08:38:19.279Z,2.95
2022-08-30T08:41:25.626Z,3.78
2022-08-30T08:43:55.354Z,1.55
2022-08-30T08:46:39.734Z,3.25
2022-08-30T08:49:15.365Z,7.68
2022-08-30T08:52:04.776Z,2.03
2022-08-30T08:54:46.175Z,2.75
2022-08-30T08:57:17.083Z,2.55
2022-08-30T08:59:48.172Z,2.03
2022-08-30T09:02:30.329Z,3.83
2022-08-30T09:05:04.401Z,2.22
2022-08-30T09:07:43.255Z,3.72
2022-08-30T09:10:12.989Z,2.90
2022-08-30T09:12:42.605Z,1.83
2022-08-30T09:15:21.792Z,2.22
2022-08-30T09:17:59.454Z,3.63
2022-08-30T09:20:33.895Z,1.95
2022-08-30T09:23:25.286Z,9.18
2022-08-30T09:26:06.961Z,2.08
2022-08-30T09:28:58.218Z,2.05
2022-08-30T09:31:34.611Z,2.42
2022-08-30T09:34:17.863Z,3.33
2022-08-30T09:36:54.379Z,2.08
2022-08-30T09:39:35.524Z,2.47
2022-08-30T09:42:27.786Z,3.33
2022-08-30T09:45:12.014Z,1.95
2022-08-30T09:47:45.232Z,2.53
2022-08-30T09:50:24.821Z,2.67
2022-08-30T09:53:23.522Z,4.20
2022-08-30T09:56:22.613Z,2.00
2022-08-30T09:59:31.334Z,3.80
2022-08-30T10:02:28.778Z,2.78
2022-08-30T10:05:24.244Z,4.53
2022-08-30T10:08:20.929Z,4.95
2022-08-30T10:11:15.597Z,5.03
2022-08-30T10:14:22.377Z,3.45
2022-08-30T10:17:17.518Z,4.18
2022-08-30T10:20:14.360Z,4.28
2022-08-30T10:22:50.875Z,2.88
2022-08-30T10:25:38.428Z,3.40
2022-08-30T10:28:33.112Z,7.07
2022-08-30T10:31:12.191Z,3.75
2022-08-30T10:33:47.099Z,2.35
2022-08-30T10:36:19.409Z,4.05
2022-08-30T10:38:54.290Z,4.63
2022-08-30T10:41:46.240Z,2.75
2022-08-30T10:44:38.310Z,3.88
2022-08-30T10:47:50.315Z,6.22
2022-08-30T10:50:42.600Z,4.78
2022-08-30T10:53:22.973Z,4.15
2022-08-30T10:56:09.080Z,5.72
2022-08-30T10:58:41.983Z,5.57
2022-08-30T11:01:51.669Z,6.32
2022-08-30T11:04:52.154Z,7.00
2022-08-30T11:08:01.134Z,9.20
2022-08-30T11:11:13.026Z,8.00
2022-08-30T11:13:44.784Z,6.95
2022-08-30T11:16:18.282Z,9.20
2022-08-30T11:18:54.026Z,11.90
2022-08-30T11:21:41.591Z,8.23
2022-08-30T11:24:24.033Z,6.18
2022-08-30T11:26:59.230Z,82.80
2022-08-30T11:29:41.741Z,14.98
2022-08-30T11:32:26.218Z,11.32
2022-08-30T11:34:59.522Z,6.30
2022-08-30T11:37:50.737Z,7.53
2022-08-30T11:40:47.937Z,9.88
2022-08-30T11:43:56.069Z,8.73
2022-08-30T11:49:47.860Z,10.90
2022-08-30T11:52:36.617Z,12.63
2022-08-30T11:55:45.350Z,7.95
2022-08-30T11:58:44.250Z,10.20
2022-08-30T12:01:51.025Z,9.77
2022-08-30T12:04:38.974Z,14.57
2022-08-30T12:07:11.078Z,8.63
2022-08-30T12:10:01.698Z,8.05
2022-08-30T12:12:52.488Z,11.70
2022-08-30T12:15:50.008Z,11.35
2022-08-30T12:18:32.552Z,16.52
2022-08-30T12:21:43.818Z,12.80
2022-08-30T12:24:34.203Z,10.45
2022-08-30T12:27:07.278Z,10.73
2022-08-30T12:29:37.758Z,6.65
2022-08-30T12:32:20.246Z,10.30
2022-08-30T12:35:01.162Z,8.02
2022-08-30T12:37:38.489Z,5.85
2022-08-30T12:40:20.271Z,6.93
2022-08-30T12:43:00.863Z,7.47
2022-08-30T12:45:35.093Z,8.13
2022-08-30T12:48:16.085Z,7.28
2022-08-30T12:50:53.529Z,10.73
2022-08-30T12:53:44.672Z,8.65
2022-08-30T12:56:26.963Z,10.77
2022-08-30T12:59:07.871Z,21.83
2022-08-30T13:01:38.800Z,12.30
2022-08-30T13:04:24.197Z,8.48
2022-08-30T13:07:04.721Z,11.82
2022-08-30T13:09:49.324Z,6.72
2022-08-30T13:12:30.234Z,9.00
2022-08-30T13:15:21.284Z,7.95
2022-08-30T13:18:11.038Z,9.70
2022-08-30T13:20:40.708Z,11.43
2022-08-30T13:23:12.921Z,6.88
2022-08-30T13:25:42.742Z,8.90
2022-08-30T13:28:12.482Z,13.25
2022-08-30T13:30:42.414Z,23.77
2022-08-30T13:33:13.293Z,9.43
2022-08-30T13:35:44.223Z,14.95
2022-08-30T13:38:14.408Z,12.63
2022-08-30T13:40:44.416Z,13.63
2022-08-30T13:43:14.476Z,12.35
2022-08-30T13:45:45.138Z,13.63
2022-08-30T13:48:17.395Z,30.80
2022-08-30T13:50:47.690Z,13.52
2022-08-30T13:53:51.863Z,13.30
2022-08-30T13:56:09.001Z,17.23
2022-08-30T13:58:44.272Z,17.30
2022-08-30T14:01:16.516Z,18.38
2022-08-30T14:06:36.568Z,18.50
2022-08-30T14:09:08.858Z,15.57
2022-08-30T14:11:40.244Z,17.90
2022-08-30T14:14:16.078Z,15.52
2022-08-30T14:16:51.029Z,13.35
2022-08-30T14:19:21.474Z,18.25
2022-08-30T14:22:48.961Z,24.80
2022-08-30T14:25:19.395Z,16.58
2022-08-30T14:27:49.352Z,13.23
2022-08-30T14:30:21.240Z,18.20
2022-08-30T14:32:51.372Z,16.33
2022-08-30T14:35:23.833Z,17.50
2022-08-30T14:37:55.180Z,16.95
2022-08-30T14:40:24.915Z,14.30
2022-08-30T14:42:54.604Z,13.90
2022-08-30T14:45:24.211Z,22.33
2022-08-30T14:47:53.820Z,19.38
2022-08-30T14:50:23.608Z,18.63
2022-08-30T14:52:53.526Z,15.20
2022-08-30T14:55:23.601Z,14.45
2022-08-30T14:57:53.183Z,13.70
2022-08-30T15:00:24.372Z,28.13
2022-08-30T15:02:55.568Z,18.40
2022-08-30T15:05:25.207Z,13.70
2022-08-30T15:07:55.874Z,32.20
2022-08-30T15:10:26.271Z,16.98
2022-08-30T15:12:56.285Z,18.85
2022-08-30T15:15:26.773Z,20.08
2022-08-30T15:17:56.702Z,19.13
2022-08-30T15:20:26.750Z,20.13
2022-08-30T15:22:56.958Z,18.50
2022-08-30T15:25:27.635Z,19.85
2022-08-30T15:27:57.636Z,16.02
2022-08-30T15:30:27.541Z,15.68
2022-08-30T15:32:57.472Z,25.50
2022-08-30T15:37:48.707Z,17.33
2022-08-30T15:40:18.415Z,15.57
2022-08-30T15:42:49.853Z,26.65
2022-08-30T15:45:20.362Z,35.42
2022-08-30T15:47:50.157Z,37.08
2022-08-30T15:50:19.773Z,47.58
2022-08-30T15:52:49.411Z,32.33
2022-08-30T15:55:19.116Z,29.48
2022-08-30T15:57:49.701Z,30.48
2022-08-30T16:00:19.657Z,24.52
2022-08-30T16:02:51.357Z,16.58
2022-08-30T16:05:25.378Z,19.17
2022-08-30T16:07:55.376Z,14.90
2022-08-30T16:10:25.389Z,15.80
2022-08-30T16:13:01.797Z,14.10
2022-08-30T16:15:33.065Z,17.38
2022-08-30T16:18:02.944Z,15.75
2022-08-30T16:20:32.970Z,13.48
2022-08-30T16:23:02.929Z,18.23
2022-08-30T16:25:40.026Z,14.43
2022-08-30T16:28:11.042Z,15.65
2022-08-30T16:30:40.597Z,18.25
2022-08-30T16:33:10.224Z,12.63
2022-08-30T16:35:39.793Z,14.18
2022-08-30T16:38:09.394Z,13.35
2022-08-30T16:40:39.164Z,11.43
2022-08-30T16:43:12.107Z,13.65
2022-08-30T16:45:42.770Z,11.07
2022-08-30T16:48:14.557Z,13.80
2022-08-30T16:50:46.612Z,16.63
2022-08-30T16:53:16.817Z,18.25
2022-08-30T16:55:46.689Z,13.20
2022-08-30T16:58:18.940Z,10.60
2022-08-30T17:00:53.489Z,14.43
2022-08-30T17:03:23.146Z,7.35
2022-08-30T17:05:52.898Z,15.00
2022-08-30T17:08:27.635Z,14.25
2022-08-30T17:10:58.039Z,14.57
2022-08-30T17:13:28.122Z,16.27
2022-08-30T17:15:58.311Z,13.80
2022-08-30T17:18:28.607Z,22.52
2022-08-30T17:20:58.908Z,15.73
2022-08-30T17:23:38.444Z,12.65
2022-08-30T17:26:08.592Z,14.60
2022-08-30T17:28:38.788Z,11.13
2022-08-30T17:31:09.092Z,14.23
2022-08-30T17:33:41.532Z,16.70
2022-08-30T17:36:12.872Z,10.95
2022-08-30T17:38:44.831Z,15.73
2022-08-30T17:41:15.428Z,12.88
2022-08-30T17:43:45.002Z,11.88
2022-08-30T17:46:22.139Z,13.75
2022-08-30T17:51:47.885Z,13.73
2022-08-30T17:54:18.077Z,12.38
2022-08-30T17:56:47.806Z,16.52
2022-08-30T17:59:18.846Z,13.75
2022-08-30T18:01:49.849Z,11.63
2022-08-30T18:04:20.421Z,17.40
2022-08-30T18:06:50.616Z,11.80
2022-08-30T18:09:21.525Z,18.45
2022-08-30T18:11:52.516Z,12.77
2022-08-30T18:14:26.928Z,14.80
2022-08-30T18:16:56.874Z,13.80
2022-08-30T18:19:28.114Z,14.68
2022-08-30T18:21:58.812Z,10.48
2022-08-30T18:24:29.484Z,12.82
2022-08-30T18:27:00.217Z,14.60
2022-08-30T18:29:32.778Z,8.90
2022-08-30T18:32:04.626Z,9.00
2022-08-30T18:34:35.594Z,18.23
2022-08-30T18:37:05.234Z,11.13
2022-08-30T18:39:41.345Z,15.35
2022-08-30T18:42:11.727Z,13.80
2022-08-30T18:44:43.499Z,15.10
2022-08-30T18:47:14.352Z,10.35
2022-08-30T18:49:44.207Z,14.15
2022-08-30T18:52:14.029Z,13.25
2022-08-30T18:54:51.911Z,14.40
2022-08-30T18:57:23.797Z,16.23
2022-08-30T18:59:53.445Z,16.60
2022-08-30T19:02:27.603Z,11.23
2022-08-30T19:04:59.100Z,16.05
2022-08-30T19:07:34.377Z,16.00
2022-08-30T19:10:08.709Z,10.98
2022-08-30T19:12:42.792Z,12.20
2022-08-30T19:15:13.062Z,19.15
2022-08-30T19:17:45.768Z,11.25
2022-08-30T19:20:20.926Z,9.32
2022-08-30T19:23:10.021Z,16.10
2022-08-30T19:25:42.174Z,14.55
2022-08-30T19:28:13.366Z,9.10
2022-08-30T19:30:43.508Z,12.32
2022-08-30T19:33:13.662Z,7.80
2022-08-30T19:35:45.611Z,12.23
2022-08-30T19:38:18.597Z,10.50
2022-08-30T19:40:52.405Z,10.88
2022-08-30T19:43:24.014Z,11.20
2022-08-30T19:46:01.110Z,10.02
2022-08-30T19:48:32.197Z,11.80
2022-08-30T19:51:03.019Z,13.32
2022-08-30T19:53:35.805Z,16.90
2022-08-30T19:56:06.005Z,14.35
2022-08-30T19:58:37.083Z,9.80
2022-08-30T20:01:12.086Z,11.73
2022-08-30T20:03:42.615Z,9.68
2022-08-30T20:06:13.087Z,8.63
2022-08-30T20:08:42.882Z,12.65
2022-08-30T20:11:16.262Z,14.63
2022-08-30T20:13:48.254Z,10.55
2022-08-30T20:16:19.303Z,15.23
2022-08-30T20:18:50.628Z,16.13
2022-08-30T20:21:20.556Z,10.82
2022-08-30T20:23:50.192Z,15.55
2022-08-30T20:24:26.175Z,14.95
2022-08-30T20:26:19.760Z,10.63
2022-08-30T20:28:49.410Z,11.90
2022-08-30T20:31:19.108Z,12.13
2022-08-30T20:33:48.815Z,7.85
2022-08-30T20:36:18.523Z,11.35
2022-08-30T20:38:48.169Z,16.15
2022-08-30T20:41:20.649Z,10.95
2022-08-30T20:43:51.359Z,12.55
2022-08-30T20:46:23.012Z,12.15
2022-08-30T20:48:52.747Z,14.68
2022-08-30T20:51:24.844Z,15.07
2022-08-30T20:53:55.063Z,13.70
2022-08-30T20:56:24.904Z,12.82
2022-08-30T20:58:54.553Z,13.38
2022-08-30T21:01:25.048Z,10.55
2022-08-30T21:03:54.666Z,12.88
2022-08-30T21:06:25.202Z,9.68
2022-08-30T21:08:55.603Z,13.63
2022-08-30T21:11:25.568Z,14.85
2022-08-30T21:13:55.998Z,11.70
2022-08-30T21:16:26.046Z,22.25
2022-08-30T21:18:56.618Z,12.05
2022-08-30T21:21:28.400Z,8.63
2022-08-30T21:24:02.728Z,8.05
2022-08-30T21:26:33.015Z,8.93
2022-08-30T21:29:03.884Z,6.68
2022-08-30T21:31:34.433Z,10.27
2022-08-30T21:34:04.429Z,11.57
2022-08-30T21:36:53.604Z,16.38
2022-08-30T21:39:29.047Z,10.57
2022-08-30T21:41:59.159Z,13.60
2022-08-30T21:44:29.833Z,10.52
2022-08-30T21:47:00.356Z,7.57
2022-08-30T21:49:29.904Z,11.90
2022-08-30T21:52:00.426Z,9.32
2022-08-30T21:54:31.438Z,19.48
2022-08-30T21:57:03.359Z,10.55
2022-08-30T21:59:33.466Z,9.05
2022-08-30T22:02:03.120Z,9.13
2022-08-30T22:04:32.918Z,11.18
2022-08-30T22:07:03.925Z,9.48
2022-08-30T22:09:33.567Z,9.23
2022-08-30T22:12:03.838Z,9.10
2022-08-30T22:14:36.980Z,9.48
2022-08-30T22:17:06.968Z,9.18
2022-08-30T22:19:37.140Z,7.95
2022-08-30T22:22:07.676Z,9.88
2022-08-30T22:24:37.583Z,13.70
2022-08-30T22:27:07.648Z,10.40
2022-08-30T22:29:37.742Z,15.13
2022-08-30T22:32:08.356Z,9.32
2022-08-30T22:34:38.318Z,16.33
2022-08-30T22:37:08.377Z,17.55
2022-08-30T22:39:38.813Z,10.15
2022-08-30T22:42:09.475Z,9.73
2022-08-30T22:44:39.149Z,13.35
2022-08-30T22:47:09.798Z,17.17
2022-08-30T22:49:40.416Z,8.57
2022-08-30T22:52:10.636Z,8.95
2022-08-30T22:54:40.243Z,10.68
2022-08-30T22:57:10.823Z,9.85
2022-08-30T22:59:40.344Z,9.20
2022-08-30T23:02:10.486Z,11.60
2022-08-30T23:04:40.815Z,12.90
2022-08-30T23:07:10.494Z,7.20
2022-08-30T23:09:40.038Z,10.30
2022-08-30T23:12:09.863Z,9.32
2022-08-30T23:14:39.539Z,8.70
2022-08-30T23:17:09.102Z,16.83
2022-08-30T23:19:38.959Z,12.25
2022-08-30T23:22:08.505Z,16.20
2022-08-30T23:24:57.715Z,10.18
2022-08-30T23:27:47.521Z,9.13
2022-08-30T23:30:36.688Z,12.88
2022-08-30T23:33:26.060Z,12.93
2022-08-30T23:36:15.619Z,9.68
2022-08-30T23:39:04.985Z,18.48
2022-08-30T23:41:54.116Z,13.13
2022-08-30T23:44:43.888Z,7.55
2022-08-30T23:47:33.515Z,13.20
2022-08-30T23:50:23.072Z,21.52
2022-08-30T23:53:12.740Z,22.05
2022-08-30T23:56:02.653Z,15.93
2022-08-30T23:58:52.183Z,23.98
